YRI weather

Rivière-du-Loup Airport
Rivière-du-Loup, Quebec, Canada

Public forecast

Using degrees Celsius for public forecast. Weather courtesy of forecast.io.

METAR (pilot weather report)

Closest report is Northern Aroostook Regional Airport, 59.0 nm (109.3 km) ESE. Retrieved 2019/04/25 12:53 UTC (28 minutes ago):

KFVE 251253Z AUTO 01006KT 9SM FEW010 SCT016 OVC020 02/M03 A2991 RMK AO2 SLP138 T00171028

TAF (pilot weather forecast)

Forecast is more than 12 hours old.

Closest forecast is Charlevoix Airport, 27.7 nm (51.3 km) WSW. Retrieved 2018/06/10 18:00 UTC (11 months ago):

TAF CYML 101730Z 1018/1106 12005KT P6SM FEW060 FM102100 14006KT P6SM SCT080 BECMG 1021/1023 VRB03KT RMK NXT FCST BY 110000Z